Time;durP1;ratioP1;P1;durP2;ratioP2;P2;SDS_P1;SDS_P2;PMS_P1;PMS_P2;Temp;Humidity;BMP_temperature;BMP_pressure;BME280_temperature;BME280_humidity;BME280_pressure;Samples;Min_cycle;Max_cycle;Signal;HPM_P1;HPM_P2
2022/01/05 00:01:24;;;;;;;6.97;3.75;;;;;;;-141.50;100.00;63355.56;5082924;28;20585;-78
2022/01/05 00:03:51;;;;;;;5.78;3.97;;;;;;;-141.50;100.00;63355.56;5079293;28;20093;-78
2022/01/05 00:06:18;;;;;;;5.47;3.75;;;;;;;-141.50;100.00;63355.56;5080645;28;20543;-79
2022/01/05 00:08:45;;;;;;;5.57;3.67;;;;;;;-141.50;100.00;63355.56;5092135;28;20048;-78
2022/01/05 00:11:11;;;;;;;6.30;4.00;;;;;;;-141.50;100.00;63355.56;5094152;28;20101;-79
2022/01/05 00:13:38;;;;;;;7.78;3.70;;;;;;;-141.50;100.00;63355.56;5092879;28;20125;-78
2022/01/05 00:16:05;;;;;;;7.15;3.70;;;;;;;-141.50;100.00;63355.56;5094526;28;20070;-78
2022/01/05 00:18:32;;;;;;;4.97;3.65;;;;;;;-141.50;100.00;63355.56;5093065;28;20153;-79
2022/01/05 00:20:59;;;;;;;5.13;3.70;;;;;;;-141.50;100.00;63355.56;5092165;28;20054;-78
2022/01/05 00:23:27;;;;;;;11.05;4.00;;;;;;;-141.50;100.00;63355.56;5092913;28;20052;-78
2022/01/05 00:25:54;;;;;;;5.10;3.70;;;;;;;-141.50;100.00;63355.56;5093139;28;20048;-77
2022/01/05 00:28:21;;;;;;;5.80;3.90;;;;;;;-141.50;100.00;63355.56;5092785;28;20066;-78
2022/01/05 00:30:47;;;;;;;6.00;3.90;;;;;;;-141.50;100.00;63355.56;5094933;28;20093;-79
2022/01/05 00:33:15;;;;;;;6.32;3.90;;;;;;;-141.50;100.00;63355.56;5111814;28;20078;-78
2022/01/05 00:35:42;;;;;;;6.95;3.95;;;;;;;-141.50;100.00;63355.56;5113340;28;20047;-80
2022/01/05 00:38:08;;;;;;;4.97;3.40;;;;;;;-141.50;100.00;63355.56;5110467;28;20063;-76
2022/01/05 00:40:35;;;;;;;7.47;3.88;;;;;;;-141.50;100.00;63355.56;5093633;28;20105;-78
2022/01/05 00:43:01;;;;;;;7.10;3.63;;;;;;;-141.50;100.00;63355.56;5091424;28;20052;-78
2022/01/05 00:45:28;;;;;;;5.38;3.60;;;;;;;-141.50;100.00;63355.56;5090205;28;20098;-77
2022/01/05 00:47:55;;;;;;;4.57;2.80;;;;;;;-141.50;100.00;63355.56;5090870;28;20044;-77
2022/01/05 00:50:21;;;;;;;6.78;3.20;;;;;;;-141.50;100.00;63355.56;5091381;28;20068;-77
2022/01/05 00:52:48;;;;;;;5.85;3.40;;;;;;;-141.50;100.00;63355.56;5091855;28;20217;-78
2022/01/05 00:55:14;;;;;;;4.03;2.70;;;;;;;-141.50;100.00;63355.56;5092900;28;20113;-78
2022/01/05 00:57:41;;;;;;;4.47;2.70;;;;;;;-141.50;100.00;63355.56;5098298;28;20044;-78
2022/01/05 01:00:08;;;;;;;3.22;2.53;;;;;;;-141.50;100.00;63355.56;5105514;28;20059;-78
2022/01/05 01:02:34;;;;;;;7.15;3.03;;;;;;;-141.50;100.00;63355.56;5092317;28;20048;-79
2022/01/05 01:05:01;;;;;;;3.00;2.13;;;;;;;-141.50;100.00;63355.56;5091672;28;20093;-78
2022/01/05 01:07:28;;;;;;;3.15;2.20;;;;;;;-141.50;100.00;63355.56;5092949;28;20062;-78
2022/01/05 01:09:54;;;;;;;4.07;2.20;;;;;;;-141.50;100.00;63355.56;5093243;28;20195;-78
2022/01/05 01:12:21;;;;;;;2.65;1.85;;;;;;;-141.50;100.00;63355.56;5093881;28;20183;-78
2022/01/05 01:14:47;;;;;;;3.10;2.03;;;;;;;-141.50;100.00;63355.56;5092091;28;20055;-79
2022/01/05 01:17:14;;;;;;;4.47;2.13;;;;;;;-141.50;100.00;63355.56;5092294;28;20120;-78
2022/01/05 01:19:40;;;;;;;2.00;1.50;;;;;;;-141.50;100.00;63355.56;5092587;28;20162;-77
2022/01/05 01:22:07;;;;;;;2.42;1.80;;;;;;;-141.50;100.00;63355.56;5093493;28;20051;-79
2022/01/05 01:24:33;;;;;;;2.38;1.70;;;;;;;-141.50;100.00;63355.56;5092875;28;20113;-78
2022/01/05 01:27:00;;;;;;;3.08;1.80;;;;;;;-141.50;100.00;63355.56;5092764;28;20128;-78
2022/01/05 01:29:26;;;;;;;1.75;1.52;;;;;;;-141.50;100.00;63355.56;5090996;28;20044;-78
2022/01/05 01:31:53;;;;;;;1.83;1.60;;;;;;;-141.50;100.00;63355.56;5089760;28;20618;-80
2022/01/05 01:34:20;;;;;;;3.00;1.50;;;;;;;-141.50;100.00;63355.56;5093878;28;20143;-79
2022/01/05 01:36:46;;;;;;;2.15;1.35;;;;;;;-141.50;100.00;63355.56;5091916;28;20044;-78
2022/01/05 01:39:13;;;;;;;2.28;1.52;;;;;;;-141.50;100.00;63355.56;5092036;28;20044;-78
2022/01/05 01:41:39;;;;;;;2.40;1.33;;;;;;;-141.50;100.00;63355.56;5091036;28;20056;-78
2022/01/05 01:44:06;;;;;;;1.83;1.30;;;;;;;-141.50;100.00;63355.56;5089184;28;20044;-79
2022/01/05 01:46:33;;;;;;;1.70;1.20;;;;;;;-141.50;100.00;63355.56;5091358;28;20070;-78
2022/01/05 01:49:00;;;;;;;1.77;1.30;;;;;;;-141.50;100.00;63355.56;5089606;28;20159;-78
2022/01/05 01:51:26;;;;;;;2.63;1.15;;;;;;;-141.50;100.00;63355.56;5089634;28;20101;-78
2022/01/05 01:53:53;;;;;;;2.17;0.93;;;;;;;-141.50;100.00;63355.56;5089676;28;20048;-77
2022/01/05 01:56:20;;;;;;;1.40;1.00;;;;;;;-141.50;100.00;63355.56;5090904;28;20097;-78
2022/01/05 01:58:48;;;;;;;1.42;1.20;;;;;;;-141.50;100.00;63355.56;5090713;28;20117;-79
2022/01/05 02:01:19;;;;;;;2.42;1.15;;;;;;;-141.50;100.00;63355.56;5092243;28;20050;-79
2022/01/05 02:03:45;;;;;;;3.17;1.10;;;;;;;-141.50;100.00;63355.56;5091151;28;20059;-78
2022/01/05 02:06:12;;;;;;;1.60;0.90;;;;;;;-141.50;100.00;63355.56;5090086;28;20079;-78
2022/01/05 02:08:39;;;;;;;1.92;1.20;;;;;;;-141.50;100.00;63355.56;5088841;28;20443;-79
2022/01/05 02:11:07;;;;;;;1.50;1.00;;;;;;;-141.50;100.00;63355.56;5092875;28;20043;-78
2022/01/05 02:13:34;;;;;;;4.82;1.20;;;;;;;-141.50;100.00;63355.56;5091588;28;20093;-79
2022/01/05 02:16:01;;;;;;;3.25;1.17;;;;;;;-141.50;100.00;63355.56;5091069;28;20086;-79
2022/01/05 02:21:02;;;;;;;3.13;1.40;;;;;;;-141.50;100.00;63355.56;5091964;28;20052;-78
2022/01/05 02:23:28;;;;;;;2.33;1.47;;;;;;;-141.50;100.00;63355.56;5088033;28;20052;-78
2022/01/05 02:25:55;;;;;;;2.53;1.50;;;;;;;-141.50;100.00;63355.56;5091911;28;20052;-78
2022/01/05 02:28:22;;;;;;;2.92;1.30;;;;;;;-141.50;100.00;63355.56;5089296;28;20651;-78
2022/01/05 02:30:54;;;;;;;4.53;1.40;;;;;;;-141.50;100.00;63355.56;5091373;28;20479;-78
2022/01/05 02:33:21;;;;;;;2.08;1.50;;;;;;;-141.50;100.00;63355.56;5089268;28;20725;-79
2022/01/05 02:35:49;;;;;;;1.50;1.33;;;;;;;-141.50;100.00;63355.56;5092442;28;20044;-77
2022/01/05 02:38:21;;;;;;;1.40;1.20;;;;;;;-141.50;100.00;63355.56;5088289;28;20043;-77
2022/01/05 02:40:49;;;;;;;1.35;1.00;;;;;;;-141.50;100.00;63355.56;5090510;28;20052;-78
2022/01/05 02:43:16;;;;;;;1.08;0.82;;;;;;;-141.50;100.00;63355.56;5092091;28;20071;-78
2022/01/05 02:45:43;;;;;;;1.67;0.90;;;;;;;-141.50;100.00;63355.56;5093044;28;20064;-79
2022/01/05 02:48:10;;;;;;;1.13;0.80;;;;;;;-141.50;100.00;63355.56;5095937;28;20155;-78
2022/01/05 02:50:36;;;;;;;1.10;0.68;;;;;;;-141.50;100.00;63355.56;5093302;28;20146;-78
2022/01/05 02:53:03;;;;;;;2.17;0.80;;;;;;;-141.50;100.00;63355.56;5091842;28;20051;-78
2022/01/05 02:55:30;;;;;;;1.10;0.85;;;;;;;-141.50;100.00;63355.56;5093147;28;20054;-79
2022/01/05 02:57:56;;;;;;;1.00;0.63;;;;;;;-141.50;100.00;63355.56;5092664;28;20445;-77
2022/01/05 03:00:23;;;;;;;1.67;0.70;;;;;;;-141.50;100.00;63355.56;5092305;28;20075;-78
2022/01/05 03:02:49;;;;;;;1.08;0.60;;;;;;;-141.50;100.00;63355.56;5093836;28;20048;-79
2022/01/05 03:05:16;;;;;;;1.33;0.63;;;;;;;-141.50;100.00;63355.56;5097694;28;20059;-78
2022/01/05 03:07:42;;;;;;;1.15;0.60;;;;;;;-141.50;100.00;63355.56;5093763;28;20570;-78
2022/01/05 03:10:12;;;;;;;1.15;0.68;;;;;;;-141.50;100.00;63355.56;5094302;28;20106;-78
2022/01/05 03:12:40;;;;;;;1.75;0.70;;;;;;;-141.50;100.00;63355.56;5093917;28;20087;-78
2022/01/05 03:15:08;;;;;;;3.47;0.70;;;;;;;-141.50;100.00;63355.56;5093827;28;20078;-78
2022/01/05 03:17:34;;;;;;;0.90;0.60;;;;;;;-141.50;100.00;63355.56;5094019;28;20044;-78
2022/01/05 03:20:01;;;;;;;1.17;0.60;;;;;;;-141.50;100.00;63355.56;5096141;28;20055;-79
2022/01/05 03:22:27;;;;;;;0.98;0.50;;;;;;;-141.50;100.00;63355.56;5104252;28;20472;-78
2022/01/05 03:24:54;;;;;;;2.22;0.50;;;;;;;-141.50;100.00;63355.56;5086389;28;20051;-79
2022/01/05 03:27:20;;;;;;;0.60;0.30;;;;;;;-141.50;100.00;63355.56;5087735;28;20043;-78
2022/01/05 03:29:47;;;;;;;0.93;0.40;;;;;;;-141.50;100.00;63355.56;5086088;28;20106;-79
2022/01/05 03:32:13;;;;;;;0.82;0.20;;;;;;;-141.50;100.00;63355.56;5079044;28;20087;-78
2022/01/05 03:34:41;;;;;;;0.82;0.30;;;;;;;-141.50;100.00;63355.56;5076216;28;20094;-78
2022/01/05 03:37:07;;;;;;;0.35;0.30;;;;;;;-141.50;100.00;63355.56;5073917;28;20098;-79
2022/01/05 03:39:34;;;;;;;0.47;0.30;;;;;;;-141.50;100.00;63355.56;5076389;28;20051;-80
2022/01/05 03:42:01;;;;;;;0.75;0.38;;;;;;;-141.50;100.00;63355.56;5074745;28;20053;-80
2022/01/05 03:44:28;;;;;;;1.38;0.30;;;;;;;-141.50;100.00;63355.56;5073568;28;20063;-80
2022/01/05 03:46:55;;;;;;;0.13;0.10;;;;;;;-141.50;100.00;63355.56;5076068;28;20052;-79
2022/01/05 03:49:23;;;;;;;0.82;0.20;;;;;;;-141.50;100.00;63355.56;5089773;28;20041;-79
2022/01/05 03:51:49;;;;;;;1.40;0.30;;;;;;;-141.50;100.00;63355.56;5094633;28;20075;-79
2022/01/05 03:54:16;;;;;;;0.63;0.15;;;;;;;-141.50;100.00;63355.56;5094156;28;20049;-79
2022/01/05 03:56:42;;;;;;;0.20;0.20;;;;;;;-141.50;100.00;63355.56;5075104;28;20509;-80
2022/01/05 03:59:09;;;;;;;0.20;0.20;;;;;;;-141.50;100.00;63355.56;5072413;28;20094;-80
2022/01/05 04:01:35;;;;;;;0.20;0.13;;;;;;;-141.50;100.00;63355.56;5073033;28;20076;-81
2022/01/05 04:04:02;;;;;;;0.45;0.13;;;;;;;-141.50;100.00;63355.56;5072175;28;20056;-80
2022/01/05 04:06:29;;;;;;;0.17;0.10;;;;;;;-141.50;100.00;63355.56;5072564;28;20570;-80
2022/01/05 04:08:56;;;;;;;0.28;0.25;;;;;;;-141.50;100.00;63355.56;5073443;28;20051;-79
2022/01/05 04:11:22;;;;;;;0.38;0.20;;;;;;;-141.50;100.00;63355.56;5073750;28;20056;-80
2022/01/05 04:13:48;;;;;;;0.50;0.20;;;;;;;-141.50;100.00;63355.56;5072664;28;20056;-80
2022/01/05 04:16:15;;;;;;;1.95;0.38;;;;;;;-141.50;100.00;63355.56;5073452;28;20079;-79
2022/01/05 04:18:42;;;;;;;0.85;0.20;;;;;;;-141.50;100.00;63355.56;5069986;28;20040;-80
2022/01/05 04:21:10;;;;;;;1.05;0.20;;;;;;;-141.50;100.00;63355.56;5071950;28;20052;-78
2022/01/05 04:23:36;;;;;;;1.85;0.35;;;;;;;-141.50;100.00;63355.56;5072731;28;20201;-81
2022/01/05 04:26:03;;;;;;;0.30;0.20;;;;;;;-141.50;100.00;63355.56;5072914;28;20056;-80
2022/01/05 04:28:29;;;;;;;0.43;0.20;;;;;;;-141.50;100.00;63355.56;5068878;28;20373;-79
2022/01/05 04:30:56;;;;;;;0.30;0.30;;;;;;;-141.50;100.00;63355.56;5074333;28;20048;-78
2022/01/05 04:33:22;;;;;;;0.40;0.28;;;;;;;-141.50;100.00;63355.56;5079699;28;20151;-79
2022/01/05 04:36:09;;;;;;;0.65;0.20;;;;;;;-141.50;100.00;63355.56;5078708;28;20062;-78
2022/01/05 04:38:36;;;;;;;0.20;0.17;;;;;;;-141.50;100.00;63355.56;5077369;28;20052;-78
2022/01/05 04:41:02;;;;;;;0.80;0.30;;;;;;;-141.50;100.00;63355.56;5072365;28;20048;-79
2022/01/05 04:43:29;;;;;;;0.30;0.20;;;;;;;-141.50;100.00;63355.56;5071261;28;20048;-79
2022/01/05 04:45:56;;;;;;;1.90;0.30;;;;;;;-141.50;100.00;63355.56;5072404;28;20082;-77
2022/01/05 04:48:22;;;;;;;0.20;0.20;;;;;;;-141.50;100.00;63355.56;5072611;28;20130;-80
2022/01/05 04:50:49;;;;;;;0.40;0.15;;;;;;;-141.50;100.00;63355.56;5079132;28;20121;-78
2022/01/05 04:53:16;;;;;;;2.28;0.28;;;;;;;-141.50;100.00;63355.56;5070547;28;20056;-79
2022/01/05 04:55:43;;;;;;;2.25;0.20;;;;;;;-141.50;100.00;63355.56;5070952;28;20106;-79
2022/01/05 04:58:09;;;;;;;0.30;0.20;;;;;;;-141.50;100.00;63355.56;5068271;28;20045;-76
2022/01/05 05:00:36;;;;;;;0.63;0.10;;;;;;;-141.50;100.00;63355.56;5072458;28;20056;-77
2022/01/05 05:03:03;;;;;;;0.30;0.20;;;;;;;-141.50;100.00;63355.56;5068913;28;20052;-78
2022/01/05 05:05:30;;;;;;;0.95;0.30;;;;;;;-141.50;100.00;63355.56;5072896;28;20737;-80
2022/01/05 05:07:58;;;;;;;0.57;0.22;;;;;;;-141.50;100.00;63355.56;5070977;28;20477;-78
2022/01/05 05:10:24;;;;;;;0.52;0.30;;;;;;;-141.50;100.00;63355.56;5070073;28;20048;-78
2022/01/05 05:12:51;;;;;;;0.40;0.30;;;;;;;-141.50;100.00;63355.56;5083439;28;20048;-79
2022/01/05 05:15:17;;;;;;;0.50;0.30;;;;;;;-141.50;100.00;63355.56;5080682;28;20053;-78
2022/01/05 05:17:44;;;;;;;0.63;0.40;;;;;;;-141.50;100.00;63355.56;5070965;28;20044;-79
2022/01/05 05:20:11;;;;;;;2.13;0.25;;;;;;;-141.50;100.00;63355.56;5069677;28;20501;-78
2022/01/05 05:22:38;;;;;;;0.70;0.28;;;;;;;-141.50;100.00;63355.56;5069158;28;20491;-79
2022/01/05 05:25:05;;;;;;;3.42;0.20;;;;;;;-141.50;100.00;63355.56;5071073;28;20079;-77
2022/01/05 05:27:32;;;;;;;0.28;0.25;;;;;;;-141.50;100.00;63355.56;5070171;28;20105;-77
2022/01/05 05:29:58;;;;;;;0.38;0.22;;;;;;;-141.50;100.00;63355.56;5068025;28;20103;-77
2022/01/05 05:32:25;;;;;;;0.40;0.20;;;;;;;-141.50;100.00;63355.56;5067620;28;20546;-76
2022/01/05 05:34:51;;;;;;;0.30;0.30;;;;;;;-141.50;100.00;63355.56;5074064;28;20077;-77
2022/01/05 05:37:22;;;;;;;0.82;0.28;;;;;;;-141.50;100.00;63355.56;5085976;28;20101;-79
2022/01/05 05:39:48;;;;;;;0.93;0.30;;;;;;;-141.50;100.00;63355.56;5076493;28;20083;-78
2022/01/05 05:42:15;;;;;;;1.30;0.30;;;;;;;-141.50;100.00;63355.56;5068694;28;20048;-79
2022/01/05 05:44:41;;;;;;;3.45;1.50;;;;;;;-141.50;100.00;63355.56;5070986;28;20485;-79
2022/01/05 05:47:08;;;;;;;6.32;2.72;;;;;;;-141.50;100.00;63355.56;5071397;28;20117;-81
2022/01/05 05:49:35;;;;;;;3.63;2.20;;;;;;;-141.50;100.00;63355.56;5069975;28;20037;-80
2022/01/05 05:52:02;;;;;;;5.80;2.58;;;;;;;-141.50;100.00;63355.56;5071021;28;20481;-81
2022/01/05 05:54:30;;;;;;;6.28;2.60;;;;;;;-141.50;100.00;63355.56;5072458;28;20049;-80
2022/01/05 05:56:57;;;;;;;4.72;2.55;;;;;;;-141.50;100.00;63355.56;5074746;28;20148;-80
2022/01/05 05:59:24;;;;;;;3.22;2.42;;;;;;;-141.50;100.00;63355.56;5085491;28;20090;-79
2022/01/05 06:01:50;;;;;;;4.72;2.50;;;;;;;-141.50;100.00;63355.56;5077781;28;20405;-78
2022/01/05 06:04:19;;;;;;;3.92;2.00;;;;;;;-141.50;100.00;63355.56;5072573;28;20416;-80
2022/01/05 06:06:46;;;;;;;3.50;2.10;;;;;;;-141.50;100.00;63355.56;5075208;28;20496;-80
2022/01/05 06:09:12;;;;;;;4.68;2.75;;;;;;;-141.50;100.00;63355.56;5090836;28;20048;-80
2022/01/05 06:11:39;;;;;;;4.90;3.38;;;;;;;-141.50;100.00;63355.56;5094767;28;20052;-79
2022/01/05 06:14:06;;;;;;;5.47;3.47;;;;;;;-141.50;100.00;63355.56;5094171;28;20374;-80
2022/01/05 06:16:32;;;;;;;5.40;3.22;;;;;;;-141.50;100.00;63355.56;5096619;28;20500;-80
2022/01/05 06:18:59;;;;;;;5.32;3.35;;;;;;;-141.50;100.00;63355.56;5094705;28;20047;-79
2022/01/05 06:21:25;;;;;;;5.28;3.50;;;;;;;-141.50;100.00;63355.56;5096241;28;20056;-79
2022/01/05 06:23:52;;;;;;;5.55;3.28;;;;;;;-141.50;100.00;63355.56;5098184;28;20070;-80
2022/01/05 06:26:20;;;;;;;5.97;3.67;;;;;;;-141.50;100.00;63355.56;5097615;28;20052;-79
2022/01/05 06:28:47;;;;;;;6.70;3.72;;;;;;;-141.50;100.00;63355.56;5096600;28;20044;-80
2022/01/05 06:31:14;;;;;;;7.43;3.30;;;;;;;-141.50;100.00;63355.56;5097039;28;20055;-80
2022/01/05 06:33:40;;;;;;;8.25;3.13;;;;;;;-141.50;100.00;63355.56;5092249;28;20409;-80
2022/01/05 06:36:07;;;;;;;9.85;3.15;;;;;;;-141.50;100.00;63355.56;5096198;28;20044;-79
2022/01/05 06:38:34;;;;;;;8.50;4.00;;;;;;;-141.50;100.00;63355.56;5093688;28;20141;-80
2022/01/05 06:41:00;;;;;;;9.20;4.72;;;;;;;-141.50;100.00;63355.56;5096524;28;20074;-78
2022/01/05 06:43:27;;;;;;;10.43;5.03;;;;;;;-141.50;100.00;63355.56;5097827;28;20105;-81
2022/01/05 06:45:53;;;;;;;14.05;4.93;;;;;;;-141.50;100.00;63355.56;5098502;28;20497;-80
2022/01/05 06:48:20;;;;;;;12.00;5.45;;;;;;;-141.50;100.00;63355.56;5101561;28;20085;-79
2022/01/05 06:50:46;;;;;;;10.82;5.38;;;;;;;-141.50;100.00;63355.56;5104376;28;20056;-80
2022/01/05 06:53:14;;;;;;;9.95;5.25;;;;;;;-141.50;100.00;63355.56;5099578;28;20048;-80
2022/01/05 06:55:41;;;;;;;9.80;5.47;;;;;;;-141.50;100.00;63355.56;5100601;28;20109;-81
2022/01/05 06:58:07;;;;;;;11.38;5.93;;;;;;;-141.50;100.00;63355.56;5100435;28;20040;-80
2022/01/05 07:00:34;;;;;;;8.65;5.32;;;;;;;-141.50;100.00;63355.56;5099709;28;20052;-79
2022/01/05 07:03:01;;;;;;;10.68;5.72;;;;;;;-141.50;100.00;63355.56;5104084;28;20044;-79
2022/01/05 07:05:27;;;;;;;8.27;5.45;;;;;;;-141.50;100.00;63355.56;5100721;28;20102;-81
2022/01/05 07:07:54;;;;;;;11.82;5.47;;;;;;;-141.50;100.00;63355.56;5106231;28;20089;-81
2022/01/05 07:10:20;;;;;;;6.93;4.30;;;;;;;-141.50;100.00;63355.56;5114030;28;20058;-79
2022/01/05 07:12:47;;;;;;;7.25;3.75;;;;;;;-141.50;100.00;63355.56;5112797;28;20055;-80
2022/01/05 07:15:15;;;;;;;7.25;3.10;;;;;;;-141.50;100.00;63355.56;5098228;28;20044;-80
2022/01/05 07:17:41;;;;;;;6.88;3.63;;;;;;;-141.50;100.00;63355.56;5097024;28;20056;-80
2022/01/05 07:20:09;;;;;;;7.82;3.88;;;;;;;-141.50;100.00;63355.56;5097961;28;20048;-80
2022/01/05 07:22:37;;;;;;;7.22;3.50;;;;;;;-141.50;100.00;63355.56;5097069;28;20151;-78
2022/01/05 07:25:04;;;;;;;6.30;3.53;;;;;;;-141.50;100.00;63355.56;5096203;28;20052;-80
2022/01/05 07:27:31;;;;;;;5.68;2.60;;;;;;;-141.50;100.00;63355.56;5101247;28;20050;-80
2022/01/05 07:29:57;;;;;;;5.68;2.65;;;;;;;-141.50;100.00;63355.56;5101781;28;20040;-81
2022/01/05 07:32:24;;;;;;;8.10;3.40;;;;;;;-141.50;100.00;63355.56;5096386;28;20066;-80
2022/01/05 07:34:51;;;;;;;4.63;2.65;;;;;;;-141.50;100.00;63355.56;5095945;28;20048;-80
2022/01/05 07:37:17;;;;;;;6.78;2.83;;;;;;;-141.50;100.00;63355.56;5097775;28;20099;-80
2022/01/05 07:39:44;;;;;;;7.45;2.65;;;;;;;-141.50;100.00;63355.56;5100118;28;20052;-80
2022/01/05 07:42:10;;;;;;;8.15;2.67;;;;;;;-141.50;100.00;63355.56;5100603;28;20056;-80
2022/01/05 07:44:38;;;;;;;11.55;2.90;;;;;;;-141.50;100.00;63355.56;5101248;28;20051;-80
2022/01/05 07:47:07;;;;;;;9.88;3.00;;;;;;;-141.50;100.00;63355.56;5100368;28;20052;-80
2022/01/05 07:49:34;;;;;;;8.15;2.15;;;;;;;-141.50;100.00;63355.56;5099890;28;20071;-81
2022/01/05 07:52:00;;;;;;;5.47;2.55;;;;;;;-141.50;100.00;63355.56;5099730;28;20048;-80
2022/01/05 07:54:27;;;;;;;5.20;1.88;;;;;;;-141.50;100.00;63355.56;5101478;28;20056;-81
2022/01/05 07:56:53;;;;;;;15.00;2.35;;;;;;;-141.50;100.00;63355.56;5102807;28;20056;-80
2022/01/05 07:59:20;;;;;;;7.07;2.53;;;;;;;-141.50;100.00;63355.56;5100216;28;20512;-81
2022/01/05 08:01:46;;;;;;;8.90;2.67;;;;;;;-141.50;100.00;63355.56;5100933;28;20048;-79
2022/01/05 08:04:14;;;;;;;8.23;3.65;;;;;;;-141.50;100.00;63355.56;5100182;28;20095;-77
2022/01/05 08:06:40;;;;;;;7.10;2.75;;;;;;;-141.50;100.00;63355.56;5100111;28;20051;-80
2022/01/05 08:09:07;;;;;;;7.18;4.03;;;;;;;-141.50;100.00;63355.56;5100470;28;20182;-79
2022/01/05 08:11:34;;;;;;;7.43;4.85;;;;;;;-141.50;100.00;63355.56;5101064;28;20051;-79
2022/01/05 08:14:01;;;;;;;9.80;5.47;;;;;;;-141.50;100.00;63355.56;5100661;28;20106;-79
2022/01/05 08:16:28;;;;;;;11.00;5.03;;;;;;;-141.50;100.00;63355.56;5102154;28;20447;-79
2022/01/05 08:18:55;;;;;;;13.85;5.43;;;;;;;-141.50;100.00;63355.56;5101946;28;20040;-81
2022/01/05 08:21:22;;;;;;;9.38;4.75;;;;;;;-141.50;100.00;63355.56;5104458;28;20181;-81
2022/01/05 08:23:50;;;;;;;10.85;4.28;;;;;;;-141.50;100.00;63355.56;5112156;28;20040;-81
2022/01/05 08:26:16;;;;;;;9.38;4.50;;;;;;;-141.50;100.00;63355.56;5105138;28;20052;-80
2022/01/05 08:28:43;;;;;;;8.07;3.78;;;;;;;-141.50;100.00;63355.56;5097449;28;20075;-80
2022/01/05 08:31:10;;;;;;;9.30;3.95;;;;;;;-141.50;100.00;63355.56;5101596;28;20332;-81
2022/01/05 08:33:36;;;;;;;13.65;4.78;;;;;;;-141.50;100.00;63355.56;5098064;28;20090;-79
2022/01/05 08:36:03;;;;;;;14.88;4.03;;;;;;;-141.50;100.00;63355.56;5100208;28;20078;-81
2022/01/05 08:38:31;;;;;;;17.10;4.40;;;;;;;-141.50;100.00;63355.56;5099047;28;20075;-81
2022/01/05 08:40:57;;;;;;;12.52;4.18;;;;;;;-141.50;100.00;63355.56;5101715;28;20905;-81
2022/01/05 08:43:24;;;;;;;12.65;4.30;;;;;;;-141.50;100.00;63355.56;5102681;28;20055;-80
2022/01/05 08:45:50;;;;;;;11.82;3.67;;;;;;;-141.50;100.00;63355.56;5100983;28;20135;-81
2022/01/05 08:48:17;;;;;;;11.93;4.10;;;;;;;-141.50;100.00;63355.56;5096734;28;20048;-81
2022/01/05 08:50:44;;;;;;;17.00;4.18;;;;;;;-141.50;100.00;63355.56;5099248;28;20051;-81
2022/01/05 08:53:12;;;;;;;12.40;3.65;;;;;;;-141.50;100.00;63355.56;5097002;28;20076;-81
2022/01/05 08:55:42;;;;;;;13.07;3.80;;;;;;;-141.50;100.00;63355.56;5097909;28;20048;-80
2022/01/05 08:58:09;;;;;;;11.30;3.13;;;;;;;-141.50;100.00;63355.56;5099028;28;20051;-78
2022/01/05 09:00:36;;;;;;;14.60;3.40;;;;;;;-141.50;100.00;63355.56;5097832;28;20052;-80
2022/01/05 09:03:04;;;;;;;13.68;3.08;;;;;;;-141.50;100.00;63355.56;5097218;28;20113;-81
2022/01/05 09:05:31;;;;;;;9.63;2.83;;;;;;;-141.50;100.00;63355.56;5099126;28;20052;-81
2022/01/05 09:07:59;;;;;;;12.30;3.15;;;;;;;-141.50;100.00;63355.56;5097877;28;20079;-80
2022/01/05 09:10:25;;;;;;;8.10;2.40;;;;;;;-141.50;100.00;63355.56;5097205;28;20070;-80
2022/01/05 09:12:53;;;;;;;11.15;2.58;;;;;;;-141.50;100.00;63355.56;5099162;28;20051;-80
2022/01/05 09:15:20;;;;;;;10.02;3.10;;;;;;;-141.50;100.00;63355.56;5098337;28;20108;-81
2022/01/05 09:17:46;;;;;;;11.23;2.70;;;;;;;-141.50;100.00;63355.56;5098681;28;20447;-80
2022/01/05 09:20:13;;;;;;;12.02;2.53;;;;;;;-141.50;100.00;63355.56;5099002;28;20070;-80
2022/01/05 09:22:39;;;;;;;11.73;2.65;;;;;;;-141.50;100.00;63355.56;5097751;28;20105;-81
2022/01/05 09:25:09;;;;;;;16.08;2.42;;;;;;;-141.50;100.00;63355.56;5099933;28;20047;-81
2022/01/05 09:27:37;;;;;;;13.98;2.20;;;;;;;-141.50;100.00;63355.56;5097043;28;20052;-80
2022/01/05 09:30:06;;;;;;;14.18;2.40;;;;;;;-141.50;100.00;63355.56;5096359;28;20054;-80
2022/01/05 09:32:35;;;;;;;11.45;2.08;;;;;;;-141.50;100.00;63355.56;5096454;28;20419;-80
2022/01/05 09:35:04;;;;;;;11.57;2.53;;;;;;;-141.50;100.00;63355.56;5096473;28;20165;-80
2022/01/05 09:37:38;;;;;;;9.23;2.03;;;;;;;-141.50;100.00;63355.56;5096719;28;20078;-79
2022/01/05 09:42:52;;;;;;;14.90;2.30;;;;;;;-141.50;100.00;63355.56;5095232;28;20048;-79
2022/01/05 09:45:22;;;;;;;12.30;2.55;;;;;;;-141.50;100.00;63355.56;5097594;28;20105;-80
2022/01/05 09:48:42;;;;;;;9.25;2.10;;;;;;;-141.50;100.00;63355.56;5095032;28;20047;-80
2022/01/05 09:51:10;;;;;;;10.65;1.95;;;;;;;-141.50;100.00;63355.56;5030458;28;20072;-79
2022/01/05 09:53:39;;;;;;;14.32;2.22;;;;;;;-141.50;100.00;63355.56;5084744;28;20059;-81
2022/01/05 09:56:26;;;;;;;9.25;1.70;;;;;;;-141.50;100.00;63355.56;5094019;28;20054;-80
2022/01/05 09:58:54;;;;;;;15.93;2.53;;;;;;;-141.50;100.00;63355.56;5091093;28;20446;-81
2022/01/05 10:01:21;;;;;;;7.97;2.03;;;;;;;-141.50;100.00;63355.56;5095977;28;20052;-81
2022/01/05 10:03:47;;;;;;;9.55;1.75;;;;;;;-141.50;100.00;63355.56;5095500;28;20052;-80
2022/01/05 10:06:14;;;;;;;14.85;1.98;;;;;;;-141.50;100.00;63355.56;5094821;28;20113;-81
2022/01/05 10:08:40;;;;;;;15.35;1.65;;;;;;;-141.50;100.00;63355.56;5093492;28;20052;-81
2022/01/05 10:11:09;;;;;;;7.43;1.52;;;;;;;-141.50;100.00;63355.56;5093932;28;20090;-81
2022/01/05 10:13:36;;;;;;;9.63;1.60;;;;;;;-141.50;100.00;63355.56;5094458;28;20050;-80
2022/01/05 10:16:03;;;;;;;8.57;2.00;;;;;;;-141.50;100.00;63355.56;5093606;28;20048;-80
2022/01/05 10:18:39;;;;;;;6.20;1.48;;;;;;;-141.50;100.00;63355.56;5091755;28;20371;-80
2022/01/05 10:21:06;;;;;;;8.90;1.90;;;;;;;-141.50;100.00;63355.56;5092951;28;20102;-79
2022/01/05 10:23:38;;;;;;;10.48;2.20;;;;;;;-141.50;100.00;63355.56;5094317;28;20052;-80
2022/01/05 10:26:30;;;;;;;12.20;2.03;;;;;;;-141.50;100.00;63355.56;5104939;28;20028;-79
2022/01/05 10:29:03;;;;;;;7.80;1.52;;;;;;;-141.50;100.00;63355.56;5102882;28;20256;-80
2022/01/05 10:31:35;;;;;;;8.50;2.05;;;;;;;-141.50;100.00;63355.56;5098430;28;20059;-80
2022/01/05 10:34:17;;;;;;;9.98;1.63;;;;;;;-141.50;100.00;63355.56;5089243;28;20109;-80
2022/01/05 10:37:01;;;;;;;8.95;1.70;;;;;;;-141.50;100.00;63355.56;5090714;28;20083;-80
2022/01/05 10:39:31;;;;;;;4.63;1.85;;;;;;;-141.50;100.00;63355.56;5090401;28;20446;-80
2022/01/05 10:42:10;;;;;;;12.43;2.40;;;;;;;-141.50;100.00;63355.56;5090555;28;20510;-80
2022/01/05 10:44:37;;;;;;;13.85;2.00;;;;;;;-141.50;100.00;63355.56;5088778;28;20404;-79
2022/01/05 10:47:07;;;;;;;8.35;1.90;;;;;;;-141.50;100.00;63355.56;5089443;28;20083;-79
2022/01/05 10:49:37;;;;;;;15.57;2.60;;;;;;;-141.50;100.00;63355.56;5088132;28;20078;-80
2022/01/05 10:52:51;;;;;;;8.30;2.03;;;;;;;-141.50;100.00;63355.56;5090407;28;20101;-79
2022/01/05 10:55:19;;;;;;;10.40;2.45;;;;;;;-141.50;100.00;63355.56;4992584;28;20100;-79
2022/01/05 10:58:09;;;;;;;14.27;2.50;;;;;;;-141.50;100.00;63355.56;5008306;28;20109;-80
2022/01/05 11:00:39;;;;;;;12.52;2.35;;;;;;;-141.50;100.00;63355.56;5059404;28;20117;-79
2022/01/05 11:03:19;;;;;;;10.35;2.50;;;;;;;-141.50;100.00;63355.56;5092346;28;20052;-79
2022/01/05 11:06:13;;;;;;;8.48;2.40;;;;;;;-141.50;100.00;63355.56;5095047;28;20119;-80
2022/01/05 11:08:47;;;;;;;6.45;1.95;;;;;;;-141.50;100.00;63355.56;5090144;28;20109;-80
2022/01/05 11:11:35;;;;;;;5.25;2.05;;;;;;;-141.50;100.00;63355.56;5093678;28;20492;-80
2022/01/05 11:14:14;;;;;;;13.43;2.45;;;;;;;-141.50;100.00;63355.56;5093359;28;20051;-79
2022/01/05 11:16:46;;;;;;;9.43;2.10;;;;;;;-141.50;100.00;63355.56;5093229;28;20074;-79